Briefing drone pour Yenne

Rechercher une autre localisation

Conditions de vol :


Nous sommes le : Dimanche 29 mai 2022
Il est 03:12 UTC (05:12 LT)

Lever de soleil : 03:26 UTC (05:26 LT)
Coucher de soleil : 19:42 UTC (21:42 LT)

Météo

L'essentiel des conditions de vol

VIGILANCE MÉTÉO FRANCE - Savoie (73)
Pas de vigilances particulieres
CARTE TEMSI
CARTES DES FRONTS
METAR de LFLB
LFLB 290300Z AUTO 01010KT CAVOK 14/04 Q1010 NOSIG

Date d'émission: 29/05/2022
Heure d'émission: 03:00 UTC
Vent: 010° pour 10 KT (19 km/h)
Visibilité horizontale: > 10 km
Plafond : Plafond et visibilité OK (CAVOK)
Température: 14 °C
Point de rosée: 4 °C
Humidité: 51%
Pression (QNH): 1010 hPa
Conditions: Pas de changement dans les 2 heures (NOSIG)
TAF de LFLB
LFLB 290200Z 2903/3003 36012KT CAVOK BECMG 2918/2921 VRB03KT

Conditions prévues :

Heure d'émission : Bulletin éffectué le 29 à 03:00 UTC
Prévision : Valide du 29 a 03:00 UTC au 30 a 03:00 UTC
Vent : 360° pour 12 KT (22 km/h)
Visibilité : > 10 km

Devenant :

Prévision : Valide du 29 a 18:00 UTC au 29 a 21:00 UTC
Vent : Variable pour 3 KT (6 km/h)
WEBCAM POUR YENNE

Réglementation

Voler en sécurité

CARTES AERONAUTIQUE 1/500.000
CARTES VAC (LFLB)
SUP AIP




Chargement des AIP...
NOTAM (YENNE + Terrain à proximité / FIR )




Chargement des NOTAMS...
CONTACT PREFECTURE 73


Avertissement : Les données mises à disposition sont indicatives. Oxygène Drone ne pourra être tenu responsable de dégâts causés aux biens et aux personnes.